sensor_id;sensor_type;location;lat;lon;timestamp;temperature;humidity
78516;SHT31;67815;51.990;5.688;2024-01-15T00:00:16;5.4;70.1
78516;SHT31;67815;51.990;5.688;2024-01-15T00:02:47;5.3;69.9
78516;SHT31;67815;51.990;5.688;2024-01-15T00:05:17;5.3;70.0
78516;SHT31;67815;51.990;5.688;2024-01-15T00:07:46;5.3;69.7
78516;SHT31;67815;51.990;5.688;2024-01-15T00:10:16;5.3;70.1
78516;SHT31;67815;51.990;5.688;2024-01-15T00:12:45;5.3;70.1
78516;SHT31;67815;51.990;5.688;2024-01-15T00:15:15;5.3;69.9
78516;SHT31;67815;51.990;5.688;2024-01-15T00:17:45;5.2;69.6
78516;SHT31;67815;51.990;5.688;2024-01-15T00:20:16;5.2;69.6
78516;SHT31;67815;51.990;5.688;2024-01-15T00:22:45;5.2;69.7
78516;SHT31;67815;51.990;5.688;2024-01-15T00:25:15;5.2;69.5
78516;SHT31;67815;51.990;5.688;2024-01-15T00:27:45;5.2;69.6
78516;SHT31;67815;51.990;5.688;2024-01-15T00:30:15;5.1;69.2
78516;SHT31;67815;51.990;5.688;2024-01-15T00:32:44;5.1;69.3
78516;SHT31;67815;51.990;5.688;2024-01-15T00:35:14;5.1;68.9
78516;SHT31;67815;51.990;5.688;2024-01-15T00:37:43;5.0;69.0
78516;SHT31;67815;51.990;5.688;2024-01-15T00:40:13;5.0;69.2
78516;SHT31;67815;51.990;5.688;2024-01-15T00:42:43;5.0;69.5
78516;SHT31;67815;51.990;5.688;2024-01-15T00:45:13;4.9;69.6
78516;SHT31;67815;51.990;5.688;2024-01-15T00:47:42;4.9;69.7
78516;SHT31;67815;51.990;5.688;2024-01-15T00:50:14;4.9;69.8
78516;SHT31;67815;51.990;5.688;2024-01-15T00:52:44;4.8;69.9
78516;SHT31;67815;51.990;5.688;2024-01-15T00:55:14;4.8;69.9
78516;SHT31;67815;51.990;5.688;2024-01-15T00:57:43;4.8;69.7
78516;SHT31;67815;51.990;5.688;2024-01-15T01:00:14;4.8;69.7
78516;SHT31;67815;51.990;5.688;2024-01-15T01:02:46;4.8;69.8
78516;SHT31;67815;51.990;5.688;2024-01-15T01:05:15;4.7;69.5
78516;SHT31;67815;51.990;5.688;2024-01-15T01:07:45;4.7;69.8
78516;SHT31;67815;51.990;5.688;2024-01-15T01:10:15;4.7;70.0
78516;SHT31;67815;51.990;5.688;2024-01-15T01:12:44;4.7;69.8
78516;SHT31;67815;51.990;5.688;2024-01-15T01:15:14;4.7;69.6
78516;SHT31;67815;51.990;5.688;2024-01-15T01:17:43;4.7;69.4
78516;SHT31;67815;51.990;5.688;2024-01-15T01:20:14;4.7;69.4
78516;SHT31;67815;51.990;5.688;2024-01-15T01:22:43;4.7;69.5
78516;SHT31;67815;51.990;5.688;2024-01-15T01:25:13;4.6;69.9
78516;SHT31;67815;51.990;5.688;2024-01-15T01:27:45;4.6;70.1
78516;SHT31;67815;51.990;5.688;2024-01-15T01:30:17;4.6;70.1
78516;SHT31;67815;51.990;5.688;2024-01-15T01:32:46;4.6;70.1
78516;SHT31;67815;51.990;5.688;2024-01-15T01:35:16;4.6;70.0
78516;SHT31;67815;51.990;5.688;2024-01-15T01:37:46;4.6;69.8
78516;SHT31;67815;51.990;5.688;2024-01-15T01:40:15;4.6;70.0
78516;SHT31;67815;51.990;5.688;2024-01-15T01:42:45;4.6;69.7
78516;SHT31;67815;51.990;5.688;2024-01-15T01:45:15;4.6;69.6
78516;SHT31;67815;51.990;5.688;2024-01-15T01:47:45;4.6;69.9
78516;SHT31;67815;51.990;5.688;2024-01-15T01:50:17;4.6;69.9
78516;SHT31;67815;51.990;5.688;2024-01-15T01:52:48;4.6;69.8
78516;SHT31;67815;51.990;5.688;2024-01-15T01:55:19;4.5;69.8
78516;SHT31;67815;51.990;5.688;2024-01-15T01:57:50;4.5;69.6
78516;SHT31;67815;51.990;5.688;2024-01-15T02:00:22;4.5;69.6
78516;SHT31;67815;51.990;5.688;2024-01-15T02:02:52;4.5;69.4
78516;SHT31;67815;51.990;5.688;2024-01-15T02:05:22;4.5;69.2
78516;SHT31;67815;51.990;5.688;2024-01-15T02:07:52;4.5;69.1
78516;SHT31;67815;51.990;5.688;2024-01-15T02:10:22;4.5;69.0
78516;SHT31;67815;51.990;5.688;2024-01-15T02:12:52;4.5;69.2
78516;SHT31;67815;51.990;5.688;2024-01-15T02:15:22;4.5;68.8
78516;SHT31;67815;51.990;5.688;2024-01-15T02:17:58;4.5;68.8
78516;SHT31;67815;51.990;5.688;2024-01-15T02:20:28;4.5;69.1
78516;SHT31;67815;51.990;5.688;2024-01-15T02:23:06;4.5;69.3
78516;SHT31;67815;51.990;5.688;2024-01-15T02:25:39;4.4;69.2
78516;SHT31;67815;51.990;5.688;2024-01-15T02:28:11;4.4;69.3
78516;SHT31;67815;51.990;5.688;2024-01-15T02:30:42;4.4;69.4
78516;SHT31;67815;51.990;5.688;2024-01-15T02:33:12;4.4;69.5
78516;SHT31;67815;51.990;5.688;2024-01-15T02:35:42;4.4;69.7
78516;SHT31;67815;51.990;5.688;2024-01-15T02:38:14;4.4;70.2
78516;SHT31;67815;51.990;5.688;2024-01-15T02:40:44;4.4;70.6
78516;SHT31;67815;51.990;5.688;2024-01-15T02:43:14;4.4;70.8
78516;SHT31;67815;51.990;5.688;2024-01-15T02:45:43;4.4;71.0
78516;SHT31;67815;51.990;5.688;2024-01-15T02:48:13;4.4;70.9
78516;SHT31;67815;51.990;5.688;2024-01-15T02:50:42;4.4;71.1
78516;SHT31;67815;51.990;5.688;2024-01-15T02:53:12;4.4;71.3
78516;SHT31;67815;51.990;5.688;2024-01-15T02:55:42;4.5;71.1
78516;SHT31;67815;51.990;5.688;2024-01-15T02:58:11;4.5;70.9
78516;SHT31;67815;51.990;5.688;2024-01-15T03:00:41;4.5;70.8
78516;SHT31;67815;51.990;5.688;2024-01-15T03:03:11;4.5;70.7
78516;SHT31;67815;51.990;5.688;2024-01-15T03:05:42;4.6;70.5
78516;SHT31;67815;51.990;5.688;2024-01-15T03:08:11;4.6;70.3
78516;SHT31;67815;51.990;5.688;2024-01-15T03:10:41;4.6;70.1
78516;SHT31;67815;51.990;5.688;2024-01-15T03:13:10;4.6;69.9
78516;SHT31;67815;51.990;5.688;2024-01-15T03:15:40;4.6;69.9
78516;SHT31;67815;51.990;5.688;2024-01-15T03:18:09;4.6;69.9
78516;SHT31;67815;51.990;5.688;2024-01-15T03:20:39;4.6;69.7
78516;SHT31;67815;51.990;5.688;2024-01-15T03:23:08;4.6;69.8
78516;SHT31;67815;51.990;5.688;2024-01-15T03:25:38;4.6;69.9
78516;SHT31;67815;51.990;5.688;2024-01-15T03:28:07;4.6;69.6
78516;SHT31;67815;51.990;5.688;2024-01-15T03:30:37;4.6;69.6
78516;SHT31;67815;51.990;5.688;2024-01-15T03:33:06;4.6;69.8
78516;SHT31;67815;51.990;5.688;2024-01-15T03:35:36;4.5;69.6
78516;SHT31;67815;51.990;5.688;2024-01-15T03:38:07;4.5;69.5
78516;SHT31;67815;51.990;5.688;2024-01-15T03:40:36;4.5;69.6
78516;SHT31;67815;51.990;5.688;2024-01-15T03:43:06;4.5;69.7
78516;SHT31;67815;51.990;5.688;2024-01-15T03:45:36;4.5;69.8
78516;SHT31;67815;51.990;5.688;2024-01-15T03:48:06;4.5;69.6
78516;SHT31;67815;51.990;5.688;2024-01-15T03:50:35;4.5;69.6
78516;SHT31;67815;51.990;5.688;2024-01-15T03:53:05;4.5;69.7
78516;SHT31;67815;51.990;5.688;2024-01-15T03:55:36;4.5;69.4
78516;SHT31;67815;51.990;5.688;2024-01-15T03:58:06;4.5;69.5
78516;SHT31;67815;51.990;5.688;2024-01-15T04:00:35;4.5;69.8
78516;SHT31;67815;51.990;5.688;2024-01-15T04:03:05;4.5;69.7
78516;SHT31;67815;51.990;5.688;2024-01-15T04:05:35;4.5;70.1
78516;SHT31;67815;51.990;5.688;2024-01-15T04:08:05;4.5;70.2
78516;SHT31;67815;51.990;5.688;2024-01-15T04:10:36;4.5;70.1
78516;SHT31;67815;51.990;5.688;2024-01-15T04:13:05;4.6;70.5
78516;SHT31;67815;51.990;5.688;2024-01-15T04:15:35;4.6;70.7
78516;SHT31;67815;51.990;5.688;2024-01-15T04:18:08;4.6;70.6
78516;SHT31;67815;51.990;5.688;2024-01-15T04:20:37;4.6;70.6
78516;SHT31;67815;51.990;5.688;2024-01-15T04:23:07;4.6;70.5
78516;SHT31;67815;51.990;5.688;2024-01-15T04:25:39;4.6;70.5
78516;SHT31;67815;51.990;5.688;2024-01-15T04:28:10;4.7;70.7
78516;SHT31;67815;51.990;5.688;2024-01-15T04:30:39;4.7;70.6
78516;SHT31;67815;51.990;5.688;2024-01-15T04:33:09;4.7;70.4
78516;SHT31;67815;51.990;5.688;2024-01-15T04:35:38;4.7;70.3
78516;SHT31;67815;51.990;5.688;2024-01-15T04:38:08;4.7;70.3
78516;SHT31;67815;51.990;5.688;2024-01-15T04:40:38;4.7;70.3
78516;SHT31;67815;51.990;5.688;2024-01-15T04:43:08;4.6;70.3
78516;SHT31;67815;51.990;5.688;2024-01-15T04:45:38;4.6;70.4
78516;SHT31;67815;51.990;5.688;2024-01-15T04:48:08;4.6;70.5
78516;SHT31;67815;51.990;5.688;2024-01-15T04:50:37;4.6;70.4
78516;SHT31;67815;51.990;5.688;2024-01-15T04:53:06;4.6;70.4
78516;SHT31;67815;51.990;5.688;2024-01-15T04:55:36;4.6;70.1
78516;SHT31;67815;51.990;5.688;2024-01-15T04:58:06;4.6;70.1
78516;SHT31;67815;51.990;5.688;2024-01-15T05:00:36;4.6;70.1
78516;SHT31;67815;51.990;5.688;2024-01-15T05:03:06;4.5;70.2
78516;SHT31;67815;51.990;5.688;2024-01-15T05:05:36;4.5;70.1
78516;SHT31;67815;51.990;5.688;2024-01-15T05:08:08;4.5;70.1
78516;SHT31;67815;51.990;5.688;2024-01-15T05:10:39;4.5;70.0
78516;SHT31;67815;51.990;5.688;2024-01-15T05:13:10;4.5;69.8
78516;SHT31;67815;51.990;5.688;2024-01-15T05:15:40;4.5;70.2
78516;SHT31;67815;51.990;5.688;2024-01-15T05:18:09;4.5;70.4
78516;SHT31;67815;51.990;5.688;2024-01-15T05:20:39;4.4;70.6
78516;SHT31;67815;51.990;5.688;2024-01-15T05:23:09;4.4;70.7
78516;SHT31;67815;51.990;5.688;2024-01-15T05:25:39;4.4;70.9
78516;SHT31;67815;51.990;5.688;2024-01-15T05:28:09;4.4;71.2
78516;SHT31;67815;51.990;5.688;2024-01-15T05:30:38;4.4;71.4
78516;SHT31;67815;51.990;5.688;2024-01-15T05:33:08;4.4;71.6
78516;SHT31;67815;51.990;5.688;2024-01-15T05:35:37;4.4;71.7
78516;SHT31;67815;51.990;5.688;2024-01-15T05:38:07;4.4;71.8
78516;SHT31;67815;51.990;5.688;2024-01-15T05:40:37;4.4;71.7
78516;SHT31;67815;51.990;5.688;2024-01-15T05:43:06;4.4;71.7
78516;SHT31;67815;51.990;5.688;2024-01-15T05:45:38;4.4;71.8
78516;SHT31;67815;51.990;5.688;2024-01-15T05:48:12;4.4;71.9
78516;SHT31;67815;51.990;5.688;2024-01-15T05:50:42;4.4;72.1
78516;SHT31;67815;51.990;5.688;2024-01-15T05:53:11;4.4;72.2
78516;SHT31;67815;51.990;5.688;2024-01-15T05:55:42;4.4;72.3
78516;SHT31;67815;51.990;5.688;2024-01-15T05:58:11;4.4;72.3
78516;SHT31;67815;51.990;5.688;2024-01-15T06:00:41;4.4;72.3
78516;SHT31;67815;51.990;5.688;2024-01-15T06:03:10;4.4;72.2
78516;SHT31;67815;51.990;5.688;2024-01-15T06:05:40;4.4;72.3
78516;SHT31;67815;51.990;5.688;2024-01-15T06:08:09;4.4;72.2
78516;SHT31;67815;51.990;5.688;2024-01-15T06:10:39;4.4;72.4
78516;SHT31;67815;51.990;5.688;2024-01-15T06:13:08;4.4;72.5
78516;SHT31;67815;51.990;5.688;2024-01-15T06:15:40;4.4;72.4
78516;SHT31;67815;51.990;5.688;2024-01-15T06:18:09;4.5;72.3
78516;SHT31;67815;51.990;5.688;2024-01-15T06:20:39;4.5;72.4
78516;SHT31;67815;51.990;5.688;2024-01-15T06:23:09;4.5;72.5
78516;SHT31;67815;51.990;5.688;2024-01-15T06:25:39;4.5;72.5
78516;SHT31;67815;51.990;5.688;2024-01-15T06:28:08;4.5;72.5
78516;SHT31;67815;51.990;5.688;2024-01-15T06:30:38;4.5;72.8
78516;SHT31;67815;51.990;5.688;2024-01-15T06:33:07;4.5;72.6
78516;SHT31;67815;51.990;5.688;2024-01-15T06:35:37;4.5;72.4
78516;SHT31;67815;51.990;5.688;2024-01-15T06:38:07;4.5;72.4
78516;SHT31;67815;51.990;5.688;2024-01-15T06:40:36;4.6;72.2
78516;SHT31;67815;51.990;5.688;2024-01-15T06:43:11;4.6;71.8
78516;SHT31;67815;51.990;5.688;2024-01-15T06:45:41;4.6;71.5
78516;SHT31;67815;51.990;5.688;2024-01-15T06:48:11;4.6;71.4
78516;SHT31;67815;51.990;5.688;2024-01-15T06:50:42;4.6;71.3
78516;SHT31;67815;51.990;5.688;2024-01-15T06:53:12;4.6;71.2
78516;SHT31;67815;51.990;5.688;2024-01-15T06:55:44;4.6;71.2
78516;SHT31;67815;51.990;5.688;2024-01-15T06:58:14;4.6;71.2
78516;SHT31;67815;51.990;5.688;2024-01-15T07:00:44;4.6;71.3
78516;SHT31;67815;51.990;5.688;2024-01-15T07:03:15;4.6;71.3
78516;SHT31;67815;51.990;5.688;2024-01-15T07:05:44;4.6;71.4
78516;SHT31;67815;51.990;5.688;2024-01-15T07:08:14;4.6;71.3
78516;SHT31;67815;51.990;5.688;2024-01-15T07:10:43;4.6;71.4
78516;SHT31;67815;51.990;5.688;2024-01-15T07:13:15;4.6;71.6
78516;SHT31;67815;51.990;5.688;2024-01-15T07:15:45;4.6;71.4
78516;SHT31;67815;51.990;5.688;2024-01-15T07:18:15;4.6;71.4
78516;SHT31;67815;51.990;5.688;2024-01-15T07:20:46;4.6;71.3
78516;SHT31;67815;51.990;5.688;2024-01-15T07:23:15;4.6;71.3
78516;SHT31;67815;51.990;5.688;2024-01-15T07:25:45;4.6;71.4
78516;SHT31;67815;51.990;5.688;2024-01-15T07:28:17;4.5;71.6
78516;SHT31;67815;51.990;5.688;2024-01-15T07:30:46;4.5;71.5
78516;SHT31;67815;51.990;5.688;2024-01-15T07:33:16;4.5;71.5
78516;SHT31;67815;51.990;5.688;2024-01-15T07:35:45;4.5;71.4
78516;SHT31;67815;51.990;5.688;2024-01-15T07:38:14;4.5;71.4
78516;SHT31;67815;51.990;5.688;2024-01-15T07:40:44;4.5;71.5
78516;SHT31;67815;51.990;5.688;2024-01-15T07:43:16;4.5;71.8
78516;SHT31;67815;51.990;5.688;2024-01-15T07:45:46;4.4;72.1
78516;SHT31;67815;51.990;5.688;2024-01-15T07:48:16;4.4;72.0
78516;SHT31;67815;51.990;5.688;2024-01-15T07:50:46;4.4;71.9
78516;SHT31;67815;51.990;5.688;2024-01-15T07:53:15;4.4;72.1
78516;SHT31;67815;51.990;5.688;2024-01-15T07:55:47;4.4;72.1
78516;SHT31;67815;51.990;5.688;2024-01-15T07:58:16;4.4;72.0
78516;SHT31;67815;51.990;5.688;2024-01-15T08:00:46;4.4;72.1
78516;SHT31;67815;51.990;5.688;2024-01-15T08:03:15;4.3;72.3
78516;SHT31;67815;51.990;5.688;2024-01-15T08:05:45;4.3;72.6
78516;SHT31;67815;51.990;5.688;2024-01-15T08:08:18;4.3;72.5
78516;SHT31;67815;51.990;5.688;2024-01-15T08:10:50;4.3;72.7
78516;SHT31;67815;51.990;5.688;2024-01-15T08:13:20;4.3;72.8
78516;SHT31;67815;51.990;5.688;2024-01-15T08:15:50;4.3;72.7
78516;SHT31;67815;51.990;5.688;2024-01-15T08:18:19;4.3;72.4
78516;SHT31;67815;51.990;5.688;2024-01-15T08:20:49;4.3;72.4
78516;SHT31;67815;51.990;5.688;2024-01-15T08:23:19;4.3;72.4
78516;SHT31;67815;51.990;5.688;2024-01-15T08:25:49;4.3;72.6
78516;SHT31;67815;51.990;5.688;2024-01-15T08:28:19;4.3;72.5
78516;SHT31;67815;51.990;5.688;2024-01-15T08:30:49;4.3;72.8
78516;SHT31;67815;51.990;5.688;2024-01-15T08:33:19;4.3;72.6
78516;SHT31;67815;51.990;5.688;2024-01-15T08:35:48;4.3;72.6
78516;SHT31;67815;51.990;5.688;2024-01-15T08:38:19;4.3;72.5
78516;SHT31;67815;51.990;5.688;2024-01-15T08:40:49;4.4;72.6
78516;SHT31;67815;51.990;5.688;2024-01-15T08:43:21;4.4;72.3
78516;SHT31;67815;51.990;5.688;2024-01-15T08:45:50;4.4;72.3
78516;SHT31;67815;51.990;5.688;2024-01-15T08:48:20;4.4;72.3
78516;SHT31;67815;51.990;5.688;2024-01-15T08:50:51;4.4;72.3
78516;SHT31;67815;51.990;5.688;2024-01-15T08:53:22;4.4;72.6
78516;SHT31;67815;51.990;5.688;2024-01-15T08:55:54;4.4;72.5
78516;SHT31;67815;51.990;5.688;2024-01-15T08:58:24;4.4;72.4
78516;SHT31;67815;51.990;5.688;2024-01-15T09:00:55;4.4;72.3
78516;SHT31;67815;51.990;5.688;2024-01-15T09:03:24;4.4;72.4
78516;SHT31;67815;51.990;5.688;2024-01-15T09:05:55;4.4;72.4
78516;SHT31;67815;51.990;5.688;2024-01-15T09:08:24;4.4;72.4
78516;SHT31;67815;51.990;5.688;2024-01-15T09:10:55;4.4;72.7
78516;SHT31;67815;51.990;5.688;2024-01-15T09:13:24;4.4;72.9
78516;SHT31;67815;51.990;5.688;2024-01-15T09:15:54;4.4;72.8
78516;SHT31;67815;51.990;5.688;2024-01-15T09:18:23;4.4;72.8
78516;SHT31;67815;51.990;5.688;2024-01-15T09:20:53;4.5;72.7
78516;SHT31;67815;51.990;5.688;2024-01-15T09:23:23;4.5;72.3
78516;SHT31;67815;51.990;5.688;2024-01-15T09:25:53;4.5;72.4
78516;SHT31;67815;51.990;5.688;2024-01-15T09:28:23;4.5;72.3
78516;SHT31;67815;51.990;5.688;2024-01-15T09:30:52;4.5;72.5
78516;SHT31;67815;51.990;5.688;2024-01-15T09:33:21;4.5;72.7
78516;SHT31;67815;51.990;5.688;2024-01-15T09:35:51;4.5;73.1
78516;SHT31;67815;51.990;5.688;2024-01-15T09:38:20;4.5;72.8
78516;SHT31;67815;51.990;5.688;2024-01-15T09:40:51;4.5;72.5
78516;SHT31;67815;51.990;5.688;2024-01-15T09:43:22;4.5;72.2
78516;SHT31;67815;51.990;5.688;2024-01-15T09:45:53;4.5;72.1
78516;SHT31;67815;51.990;5.688;2024-01-15T09:48:23;4.5;72.1
78516;SHT31;67815;51.990;5.688;2024-01-15T09:50:54;4.5;71.8
78516;SHT31;67815;51.990;5.688;2024-01-15T09:53:27;4.5;72.0
78516;SHT31;67815;51.990;5.688;2024-01-15T09:55:58;4.5;71.8
78516;SHT31;67815;51.990;5.688;2024-01-15T09:58:27;4.5;71.5
78516;SHT31;67815;51.990;5.688;2024-01-15T10:00:58;4.4;71.9
78516;SHT31;67815;51.990;5.688;2024-01-15T10:03:29;4.4;71.9
78516;SHT31;67815;51.990;5.688;2024-01-15T10:05:59;4.4;72.3
78516;SHT31;67815;51.990;5.688;2024-01-15T10:08:29;4.4;72.8
78516;SHT31;67815;51.990;5.688;2024-01-15T10:11:00;4.4;72.9
78516;SHT31;67815;51.990;5.688;2024-01-15T10:13:34;4.4;72.6
78516;SHT31;67815;51.990;5.688;2024-01-15T10:16:05;4.4;72.7
78516;SHT31;67815;51.990;5.688;2024-01-15T10:18:35;4.4;72.8
78516;SHT31;67815;51.990;5.688;2024-01-15T10:21:08;4.4;73.0
78516;SHT31;67815;51.990;5.688;2024-01-15T10:23:37;4.4;73.0
78516;SHT31;67815;51.990;5.688;2024-01-15T10:26:08;4.4;73.0
78516;SHT31;67815;51.990;5.688;2024-01-15T10:28:40;4.4;73.0
78516;SHT31;67815;51.990;5.688;2024-01-15T10:31:10;4.4;73.1
78516;SHT31;67815;51.990;5.688;2024-01-15T10:33:40;4.4;73.3
78516;SHT31;67815;51.990;5.688;2024-01-15T10:36:10;4.4;74.3
78516;SHT31;67815;51.990;5.688;2024-01-15T10:38:44;4.4;75.1
78516;SHT31;67815;51.990;5.688;2024-01-15T10:41:14;4.5;75.2
78516;SHT31;67815;51.990;5.688;2024-01-15T10:43:44;4.5;74.4
78516;SHT31;67815;51.990;5.688;2024-01-15T10:46:14;4.6;74.2
78516;SHT31;67815;51.990;5.688;2024-01-15T10:48:44;4.6;74.4
78516;SHT31;67815;51.990;5.688;2024-01-15T10:51:14;4.6;74.6
78516;SHT31;67815;51.990;5.688;2024-01-15T10:53:45;4.7;73.4
78516;SHT31;67815;51.990;5.688;2024-01-15T10:56:16;4.7;72.9
78516;SHT31;67815;51.990;5.688;2024-01-15T10:58:47;4.7;72.2
78516;SHT31;67815;51.990;5.688;2024-01-15T11:01:17;4.7;71.9
78516;SHT31;67815;51.990;5.688;2024-01-15T11:03:48;4.7;71.5
78516;SHT31;67815;51.990;5.688;2024-01-15T11:06:19;4.7;71.5
78516;SHT31;67815;51.990;5.688;2024-01-15T11:08:50;4.7;71.5
78516;SHT31;67815;51.990;5.688;2024-01-15T11:11:22;4.7;71.5
78516;SHT31;67815;51.990;5.688;2024-01-15T11:13:52;4.7;71.6
78516;SHT31;67815;51.990;5.688;2024-01-15T11:16:25;4.7;71.7
78516;SHT31;67815;51.990;5.688;2024-01-15T11:19:05;4.7;72.0
78516;SHT31;67815;51.990;5.688;2024-01-15T11:21:43;4.8;71.8
78516;SHT31;67815;51.990;5.688;2024-01-15T11:24:36;4.8;72.0
78516;SHT31;67815;51.990;5.688;2024-01-15T11:27:08;4.8;72.3
78516;SHT31;67815;51.990;5.688;2024-01-15T11:29:38;4.8;72.6
78516;SHT31;67815;51.990;5.688;2024-01-15T11:32:09;4.8;72.3
78516;SHT31;67815;51.990;5.688;2024-01-15T11:34:52;4.8;72.5
78516;SHT31;67815;51.990;5.688;2024-01-15T11:37:27;4.8;72.6
78516;SHT31;67815;51.990;5.688;2024-01-15T11:40:02;4.8;72.7
78516;SHT31;67815;51.990;5.688;2024-01-15T11:42:40;4.8;72.7
78516;SHT31;67815;51.990;5.688;2024-01-15T11:45:10;4.8;73.0
78516;SHT31;67815;51.990;5.688;2024-01-15T11:50:00;4.9;72.5
78516;SHT31;67815;51.990;5.688;2024-01-15T11:52:34;4.9;72.2
78516;SHT31;67815;51.990;5.688;2024-01-15T11:55:12;4.9;72.3
78516;SHT31;67815;51.990;5.688;2024-01-15T11:57:49;4.9;72.4
78516;SHT31;67815;51.990;5.688;2024-01-15T12:00:21;4.9;72.6
78516;SHT31;67815;51.990;5.688;2024-01-15T12:02:51;4.9;72.9
78516;SHT31;67815;51.990;5.688;2024-01-15T12:05:23;4.9;73.0
78516;SHT31;67815;51.990;5.688;2024-01-15T12:07:53;4.9;73.0
78516;SHT31;67815;51.990;5.688;2024-01-15T12:10:24;4.9;72.8
78516;SHT31;67815;51.990;5.688;2024-01-15T12:13:00;5.0;73.0
78516;SHT31;67815;51.990;5.688;2024-01-15T12:15:34;5.0;72.9
78516;SHT31;67815;51.990;5.688;2024-01-15T12:18:08;5.0;72.9
78516;SHT31;67815;51.990;5.688;2024-01-15T12:20:40;5.0;73.0
78516;SHT31;67815;51.990;5.688;2024-01-15T12:23:10;5.0;73.1
78516;SHT31;67815;51.990;5.688;2024-01-15T12:25:41;5.0;73.2
78516;SHT31;67815;51.990;5.688;2024-01-15T12:28:11;5.0;72.6
78516;SHT31;67815;51.990;5.688;2024-01-15T12:30:41;5.0;72.7
78516;SHT31;67815;51.990;5.688;2024-01-15T12:33:11;5.0;72.7
78516;SHT31;67815;51.990;5.688;2024-01-15T12:35:41;5.0;72.6
78516;SHT31;67815;51.990;5.688;2024-01-15T12:38:11;5.0;72.7
78516;SHT31;67815;51.990;5.688;2024-01-15T12:40:44;5.1;73.0
78516;SHT31;67815;51.990;5.688;2024-01-15T12:43:15;5.1;73.0
78516;SHT31;67815;51.990;5.688;2024-01-15T12:45:45;5.1;72.0
78516;SHT31;67815;51.990;5.688;2024-01-15T12:48:15;5.1;72.2
78516;SHT31;67815;51.990;5.688;2024-01-15T12:50:45;5.1;71.8
78516;SHT31;67815;51.990;5.688;2024-01-15T12:53:15;5.1;71.5
78516;SHT31;67815;51.990;5.688;2024-01-15T12:55:45;5.1;70.9
78516;SHT31;67815;51.990;5.688;2024-01-15T12:58:15;5.1;71.2
78516;SHT31;67815;51.990;5.688;2024-01-15T13:00:46;5.1;71.3
78516;SHT31;67815;51.990;5.688;2024-01-15T13:03:16;5.1;71.6
78516;SHT31;67815;51.990;5.688;2024-01-15T13:05:45;5.1;71.8
78516;SHT31;67815;51.990;5.688;2024-01-15T13:08:19;5.1;71.5
78516;SHT31;67815;51.990;5.688;2024-01-15T13:10:51;5.1;71.2
78516;SHT31;67815;51.990;5.688;2024-01-15T13:13:24;5.1;71.1
78516;SHT31;67815;51.990;5.688;2024-01-15T13:15:54;5.1;70.8
78516;SHT31;67815;51.990;5.688;2024-01-15T13:18:24;5.1;70.8
78516;SHT31;67815;51.990;5.688;2024-01-15T13:20:53;5.0;70.4
78516;SHT31;67815;51.990;5.688;2024-01-15T13:23:23;5.0;70.3
78516;SHT31;67815;51.990;5.688;2024-01-15T13:25:52;5.0;70.4
78516;SHT31;67815;51.990;5.688;2024-01-15T13:28:22;5.0;70.7
78516;SHT31;67815;51.990;5.688;2024-01-15T13:30:52;5.0;70.6
78516;SHT31;67815;51.990;5.688;2024-01-15T13:33:22;4.9;70.6
78516;SHT31;67815;51.990;5.688;2024-01-15T13:35:52;4.9;70.7
78516;SHT31;67815;51.990;5.688;2024-01-15T13:38:21;4.9;70.7
78516;SHT31;67815;51.990;5.688;2024-01-15T13:40:52;4.9;70.9
78516;SHT31;67815;51.990;5.688;2024-01-15T13:43:23;4.9;71.2
78516;SHT31;67815;51.990;5.688;2024-01-15T13:45:53;4.9;71.2
78516;SHT31;67815;51.990;5.688;2024-01-15T13:48:22;4.9;71.1
78516;SHT31;67815;51.990;5.688;2024-01-15T13:50:52;4.9;70.6
78516;SHT31;67815;51.990;5.688;2024-01-15T13:53:22;4.9;70.8
78516;SHT31;67815;51.990;5.688;2024-01-15T13:55:52;4.9;70.5
78516;SHT31;67815;51.990;5.688;2024-01-15T13:58:21;4.9;70.4
78516;SHT31;67815;51.990;5.688;2024-01-15T14:00:53;4.9;70.5
78516;SHT31;67815;51.990;5.688;2024-01-15T14:03:22;4.9;70.0
78516;SHT31;67815;51.990;5.688;2024-01-15T14:05:53;4.8;70.2
78516;SHT31;67815;51.990;5.688;2024-01-15T14:08:23;4.8;70.5
78516;SHT31;67815;51.990;5.688;2024-01-15T14:10:52;4.8;70.4
78516;SHT31;67815;51.990;5.688;2024-01-15T14:13:24;4.8;70.7
78516;SHT31;67815;51.990;5.688;2024-01-15T14:15:54;4.8;70.7
78516;SHT31;67815;51.990;5.688;2024-01-15T14:18:25;4.8;70.7
78516;SHT31;67815;51.990;5.688;2024-01-15T14:20:55;4.8;70.6
78516;SHT31;67815;51.990;5.688;2024-01-15T14:23:26;4.8;70.7
78516;SHT31;67815;51.990;5.688;2024-01-15T14:25:56;4.8;70.7
78516;SHT31;67815;51.990;5.688;2024-01-15T14:28:26;4.8;71.1
78516;SHT31;67815;51.990;5.688;2024-01-15T14:30:55;4.8;71.4
78516;SHT31;67815;51.990;5.688;2024-01-15T14:33:27;4.8;70.7
78516;SHT31;67815;51.990;5.688;2024-01-15T14:35:57;4.8;70.9
78516;SHT31;67815;51.990;5.688;2024-01-15T14:38:26;4.8;70.8
78516;SHT31;67815;51.990;5.688;2024-01-15T14:40:56;4.8;70.9
78516;SHT31;67815;51.990;5.688;2024-01-15T14:43:26;4.8;70.9
78516;SHT31;67815;51.990;5.688;2024-01-15T14:45:55;4.8;71.0
78516;SHT31;67815;51.990;5.688;2024-01-15T14:48:25;4.8;70.9
78516;SHT31;67815;51.990;5.688;2024-01-15T14:50:55;4.8;71.0
78516;SHT31;67815;51.990;5.688;2024-01-15T14:53:24;4.8;71.0
78516;SHT31;67815;51.990;5.688;2024-01-15T14:55:54;4.8;70.9
78516;SHT31;67815;51.990;5.688;2024-01-15T14:58:23;4.8;70.6
78516;SHT31;67815;51.990;5.688;2024-01-15T15:00:53;4.8;70.5
78516;SHT31;67815;51.990;5.688;2024-01-15T15:03:23;4.8;71.0
78516;SHT31;67815;51.990;5.688;2024-01-15T15:05:53;4.8;70.8
78516;SHT31;67815;51.990;5.688;2024-01-15T15:08:22;4.8;70.5
78516;SHT31;67815;51.990;5.688;2024-01-15T15:10:52;4.8;70.2
78516;SHT31;67815;51.990;5.688;2024-01-15T15:13:22;4.8;70.1
78516;SHT31;67815;51.990;5.688;2024-01-15T15:15:53;4.8;69.9
78516;SHT31;67815;51.990;5.688;2024-01-15T15:18:23;4.8;69.8
78516;SHT31;67815;51.990;5.688;2024-01-15T15:20:55;4.8;69.5
78516;SHT31;67815;51.990;5.688;2024-01-15T15:23:25;4.8;69.6
78516;SHT31;67815;51.990;5.688;2024-01-15T15:25:55;4.8;69.9
78516;SHT31;67815;51.990;5.688;2024-01-15T15:28:24;4.8;69.9
78516;SHT31;67815;51.990;5.688;2024-01-15T15:30:54;4.8;70.0
78516;SHT31;67815;51.990;5.688;2024-01-15T15:33:24;4.8;70.1
78516;SHT31;67815;51.990;5.688;2024-01-15T15:35:54;4.8;69.9
78516;SHT31;67815;51.990;5.688;2024-01-15T15:38:25;4.8;69.7
78516;SHT31;67815;51.990;5.688;2024-01-15T15:40:55;4.8;69.7
78516;SHT31;67815;51.990;5.688;2024-01-15T15:43:26;4.8;69.8
78516;SHT31;67815;51.990;5.688;2024-01-15T15:45:56;4.7;69.9
78516;SHT31;67815;51.990;5.688;2024-01-15T15:48:27;4.7;69.6
78516;SHT31;67815;51.990;5.688;2024-01-15T15:50:56;4.7;69.9
78516;SHT31;67815;51.990;5.688;2024-01-15T15:53:27;4.7;69.9
78516;SHT31;67815;51.990;5.688;2024-01-15T15:55:57;4.7;70.3
78516;SHT31;67815;51.990;5.688;2024-01-15T15:58:28;4.7;70.7
78516;SHT31;67815;51.990;5.688;2024-01-15T16:00:59;4.6;70.9
78516;SHT31;67815;51.990;5.688;2024-01-15T16:03:28;4.6;71.2
78516;SHT31;67815;51.990;5.688;2024-01-15T16:05:58;4.6;71.3
78516;SHT31;67815;51.990;5.688;2024-01-15T16:08:27;4.6;71.0
78516;SHT31;67815;51.990;5.688;2024-01-15T16:10:59;4.6;70.8
78516;SHT31;67815;51.990;5.688;2024-01-15T16:13:29;4.6;70.4
78516;SHT31;67815;51.990;5.688;2024-01-15T16:15:59;4.6;70.4
78516;SHT31;67815;51.990;5.688;2024-01-15T16:18:29;4.6;71.2
78516;SHT31;67815;51.990;5.688;2024-01-15T16:20:59;4.6;70.2
78516;SHT31;67815;51.990;5.688;2024-01-15T16:23:29;4.6;70.5
78516;SHT31;67815;51.990;5.688;2024-01-15T16:25:58;4.6;71.0
78516;SHT31;67815;51.990;5.688;2024-01-15T16:28:28;4.6;71.1
78516;SHT31;67815;51.990;5.688;2024-01-15T16:30:58;4.6;71.1
78516;SHT31;67815;51.990;5.688;2024-01-15T16:33:27;4.7;70.6
78516;SHT31;67815;51.990;5.688;2024-01-15T16:35:59;4.7;70.5
78516;SHT31;67815;51.990;5.688;2024-01-15T16:38:28;4.7;70.2